Time;durP1;ratioP1;P1;durP2;ratioP2;P2;SDS_P1;SDS_P2;PMS_P1;PMS_P2;Temp;Humidity;BMP_temperature;BMP_pressure;BME280_temperature;BME280_humidity;BME280_pressure;Samples;Min_cycle;Max_cycle;Signal;HPM_P1;HPM_P2
2021/12/10 00:00:25;;;;;;;42.80;14.90;;;1.60;97.30;;;;;;4995286;28;20197;-85
2021/12/10 00:02:52;;;;;;;45.53;16.60;;;1.60;97.30;;;;;;4994988;28;20189;-85
2021/12/10 00:05:31;;;;;;;42.37;15.40;;;1.50;97.30;;;;;;4995169;28;20926;-85
2021/12/10 00:08:10;;;;;;;36.53;13.63;;;1.50;97.30;;;;;;4997926;28;20415;-85
2021/12/10 00:10:57;;;;;;;46.53;13.40;;;1.50;97.30;;;;;;4999303;28;20450;-85
2021/12/10 00:13:26;;;;;;;48.97;13.60;;;1.50;97.30;;;;;;4999060;28;20416;-85
2021/12/10 00:15:54;;;;;;;49.90;13.97;;;1.50;97.30;;;;;;4998924;28;20427;-86
2021/12/10 00:18:29;;;;;;;33.37;12.43;;;1.50;97.30;;;;;;4998060;28;20466;-85
2021/12/10 00:20:58;;;;;;;32.50;12.40;;;1.40;97.30;;;;;;4998710;28;20434;-85
2021/12/10 00:23:29;;;;;;;49.50;16.10;;;1.40;97.30;;;;;;5015995;28;20419;-85
2021/12/10 00:25:56;;;;;;;47.57;15.37;;;1.40;97.30;;;;;;4998320;28;20431;-85
2021/12/10 00:28:32;;;;;;;46.70;14.23;;;1.40;97.30;;;;;;5015616;28;20415;-86
2021/12/10 00:31:03;;;;;;;49.23;13.40;;;1.40;97.30;;;;;;4998333;28;20454;-85
2021/12/10 00:33:36;;;;;;;39.10;11.80;;;1.40;97.30;;;;;;4998737;28;21185;-85
2021/12/10 00:36:03;;;;;;;35.67;11.93;;;1.40;97.30;;;;;;4998149;28;20428;-86
2021/12/10 00:38:28;;;;;;;46.03;12.93;;;1.30;97.30;;;;;;4998158;28;20444;-85
2021/12/10 00:40:54;;;;;;;30.87;11.70;;;1.30;97.30;;;;;;4998522;28;20443;-85
2021/12/10 00:43:19;;;;;;;40.67;12.90;;;1.30;97.30;;;;;;4998487;28;20173;-85
2021/12/10 00:45:45;;;;;;;36.67;13.20;;;1.20;97.30;;;;;;4998020;28;20275;-85
2021/12/10 00:48:11;;;;;;;34.70;15.10;;;1.20;97.30;;;;;;4996436;28;20185;-86
2021/12/10 00:50:42;;;;;;;38.47;12.40;;;1.10;97.30;;;;;;4995587;28;20201;-85
2021/12/10 00:53:08;;;;;;;40.30;14.60;;;1.10;97.30;;;;;;4995860;28;20177;-86
2021/12/10 00:55:34;;;;;;;43.03;13.07;;;1.10;97.30;;;;;;5012737;28;20897;-85
2021/12/10 00:58:00;;;;;;;37.43;13.30;;;1.10;97.30;;;;;;4995067;28;20559;-86
2021/12/10 01:00:45;;;;;;;40.03;12.77;;;1.00;97.30;;;;;;4979068;28;20223;-86
2021/12/10 01:03:15;;;;;;;31.77;11.77;;;1.00;97.30;;;;;;4995252;28;20411;-86
2021/12/10 01:05:43;;;;;;;45.20;13.67;;;0.90;97.30;;;;;;4991701;28;20974;-86
2021/12/10 01:08:10;;;;;;;33.50;12.00;;;0.90;97.30;;;;;;4992060;28;20413;-86
2021/12/10 01:10:43;;;;;;;32.93;11.73;;;0.80;97.30;;;;;;4992931;28;20440;-85
2021/12/10 01:13:15;;;;;;;37.80;14.60;;;0.80;97.30;;;;;;4994989;28;20412;-86
2021/12/10 01:15:55;;;;;;;49.33;14.07;;;0.80;97.30;;;;;;5013234;28;20408;-85
2021/12/10 01:24:16;;;;;;;29.80;11.80;;;0.80;97.30;;;;;;5012474;28;20391;-86
2021/12/10 01:29:14;;;;;;;34.87;12.73;;;0.90;97.30;;;;;;5015187;28;20424;-85
2021/12/10 01:31:41;;;;;;;31.30;11.47;;;0.90;97.30;;;;;;4997300;28;20455;-86
2021/12/10 01:34:09;;;;;;;32.10;12.50;;;0.80;97.30;;;;;;4997353;28;20434;-85
2021/12/10 01:36:36;;;;;;;26.53;10.20;;;0.80;97.30;;;;;;5014791;28;20499;-86
2021/12/10 01:39:08;;;;;;;25.90;11.03;;;0.80;97.30;;;;;;4996823;28;20464;-85
2021/12/10 01:41:38;;;;;;;47.43;13.50;;;0.80;97.30;;;;;;4996995;28;20788;-85
2021/12/10 01:44:14;;;;;;;30.77;10.90;;;0.70;97.30;;;;;;4996399;28;20412;-86
2021/12/10 01:46:41;;;;;;;33.63;11.37;;;0.70;97.30;;;;;;4997171;28;20498;-85
2021/12/10 01:49:09;;;;;;;30.50;11.17;;;0.60;97.30;;;;;;4996877;28;20420;-85
2021/12/10 01:51:37;;;;;;;34.50;13.03;;;0.60;97.30;;;;;;4996941;28;20424;-86
2021/12/10 01:54:08;;;;;;;35.17;11.10;;;0.50;97.30;;;;;;4996818;28;20420;-85
2021/12/10 01:56:37;;;;;;;28.17;11.40;;;0.50;97.30;;;;;;4996957;28;20431;-85
2021/12/10 01:59:05;;;;;;;28.90;11.13;;;0.50;97.30;;;;;;4996522;28;20479;-85
2021/12/10 02:01:41;;;;;;;38.87;13.10;;;0.50;97.30;;;;;;4996789;28;20408;-85
2021/12/10 02:04:08;;;;;;;25.20;10.00;;;0.60;97.30;;;;;;4994165;28;20416;-85
2021/12/10 02:06:34;;;;;;;28.90;10.00;;;0.60;97.30;;;;;;4994079;28;20434;-86
2021/12/10 02:09:00;;;;;;;30.83;10.63;;;0.60;97.30;;;;;;4994155;28;20661;-86
2021/12/10 02:11:25;;;;;;;37.63;10.87;;;0.70;97.30;;;;;;4993982;28;20424;-86
2021/12/10 02:13:51;;;;;;;24.40;9.47;;;0.70;97.30;;;;;;4993837;28;20887;-85
2021/12/10 02:16:17;;;;;;;33.73;10.20;;;0.70;97.30;;;;;;4993826;28;20212;-85
2021/12/10 02:18:43;;;;;;;34.53;11.63;;;0.70;97.30;;;;;;4993808;28;20205;-86
2021/12/10 02:21:08;;;;;;;31.93;11.17;;;0.80;97.30;;;;;;4993534;28;20527;-85
2021/12/10 02:23:38;;;;;;;31.93;10.43;;;0.80;97.30;;;;;;5011377;28;20635;-86
2021/12/10 02:26:06;;;;;;;26.57;9.50;;;0.80;97.30;;;;;;4993704;28;20651;-86
2021/12/10 02:28:32;;;;;;;25.60;9.40;;;0.80;97.30;;;;;;4993350;28;20424;-86
2021/12/10 02:30:59;;;;;;;31.43;11.00;;;0.80;97.30;;;;;;4993233;28;20436;-85
2021/12/10 02:33:27;;;;;;;28.13;9.50;;;0.80;97.30;;;;;;4993374;28;20532;-86
2021/12/10 02:35:52;;;;;;;36.93;10.33;;;0.90;97.30;;;;;;5011410;28;20415;-85
2021/12/10 02:38:19;;;;;;;28.00;9.17;;;0.90;97.30;;;;;;4993215;28;20829;-86
2021/12/10 02:40:47;;;;;;;35.53;9.47;;;0.80;97.30;;;;;;4993266;28;20198;-85
2021/12/10 02:43:14;;;;;;;31.50;9.67;;;0.80;97.30;;;;;;5010765;28;20409;-85
2021/12/10 02:45:47;;;;;;;29.83;9.57;;;0.80;97.30;;;;;;4990017;28;21006;-86
2021/12/10 02:48:13;;;;;;;28.40;10.57;;;0.80;97.30;;;;;;4990953;28;20426;-86
2021/12/10 02:50:39;;;;;;;24.80;8.93;;;0.80;97.30;;;;;;4992280;28;20449;-85
2021/12/10 02:53:07;;;;;;;22.80;8.33;;;0.80;97.30;;;;;;4992559;28;20431;-85
2021/12/10 02:55:33;;;;;;;22.10;9.07;;;0.80;97.30;;;;;;4992473;28;20989;-85
2021/12/10 02:58:05;;;;;;;26.73;9.00;;;0.80;97.30;;;;;;4992329;28;20463;-86
2021/12/10 03:00:35;;;;;;;22.37;8.40;;;0.80;97.30;;;;;;4992245;28;20441;-86
2021/12/10 03:03:00;;;;;;;29.63;10.37;;;0.80;97.30;;;;;;4987124;28;21376;-85
2021/12/10 03:05:27;;;;;;;26.37;8.37;;;0.90;97.30;;;;;;4971856;28;20437;-86
2021/12/10 03:07:52;;;;;;;31.10;9.60;;;0.90;97.30;;;;;;4970240;28;20641;-85
2021/12/10 03:10:27;;;;;;;21.83;8.90;;;0.90;97.30;;;;;;4986618;28;20446;-86
2021/12/10 03:12:53;;;;;;;25.67;9.10;;;1.00;97.30;;;;;;4971428;28;20656;-86
2021/12/10 03:15:21;;;;;;;29.53;11.57;;;1.00;97.30;;;;;;4970294;28;20508;-85
2021/12/10 03:17:47;;;;;;;22.13;8.77;;;1.00;97.30;;;;;;4969693;28;20202;-86
2021/12/10 03:20:16;;;;;;;20.83;7.90;;;1.00;97.30;;;;;;4970338;28;20438;-85
2021/12/10 03:22:42;;;;;;;22.50;9.20;;;0.90;97.30;;;;;;4969900;28;20826;-86
2021/12/10 03:25:12;;;;;;;18.87;8.30;;;0.90;97.30;;;;;;4971302;28;20417;-85
2021/12/10 03:27:38;;;;;;;21.50;9.20;;;0.90;97.30;;;;;;4969535;28;20506;-86
2021/12/10 03:30:09;;;;;;;23.00;8.87;;;0.90;97.30;;;;;;4970088;28;20442;-86
2021/12/10 03:32:35;;;;;;;25.87;8.73;;;0.90;97.30;;;;;;4970392;28;20424;-85
2021/12/10 03:35:09;;;;;;;22.07;8.30;;;0.90;97.30;;;;;;4969628;28;20422;-86
2021/12/10 03:37:37;;;;;;;17.53;9.07;;;0.90;97.30;;;;;;4969547;28;20504;-86
2021/12/10 03:40:05;;;;;;;22.03;8.57;;;0.80;97.30;;;;;;4970118;28;20581;-86
2021/12/10 03:42:31;;;;;;;23.70;8.70;;;0.80;97.30;;;;;;4972577;28;20455;-85
2021/12/10 03:44:57;;;;;;;21.57;8.30;;;0.80;97.30;;;;;;4973690;28;20454;-86
2021/12/10 03:47:23;;;;;;;24.13;8.53;;;0.80;97.30;;;;;;4973163;28;20527;-86
2021/12/10 03:49:49;;;;;;;24.17;7.23;;;0.80;97.30;;;;;;4977131;28;20304;-86
2021/12/10 03:52:15;;;;;;;24.30;9.47;;;0.80;97.30;;;;;;4976299;28;20186;-85
2021/12/10 03:54:41;;;;;;;18.23;7.60;;;0.70;97.30;;;;;;4975160;28;20770;-86
2021/12/10 03:57:07;;;;;;;22.73;8.27;;;0.70;97.30;;;;;;4973828;28;20295;-85
2021/12/10 03:59:36;;;;;;;27.13;9.73;;;0.70;97.30;;;;;;4986593;28;20444;-86
2021/12/10 04:02:04;;;;;;;28.63;8.73;;;0.70;97.30;;;;;;4993189;28;20973;-85
2021/12/10 04:04:34;;;;;;;21.03;9.10;;;0.80;97.30;;;;;;4994302;28;20940;-86
2021/12/10 04:07:03;;;;;;;25.07;8.63;;;0.80;97.30;;;;;;4992852;28;20421;-85
2021/12/10 04:09:29;;;;;;;25.07;9.00;;;0.80;97.30;;;;;;4992872;28;20433;-86
2021/12/10 04:11:55;;;;;;;21.73;8.67;;;0.90;97.30;;;;;;4993909;28;20411;-86
2021/12/10 04:14:22;;;;;;;23.80;8.67;;;0.90;97.30;;;;;;4992670;28;20177;-86
2021/12/10 04:16:54;;;;;;;25.07;9.00;;;0.90;97.30;;;;;;4993247;28;20920;-86
2021/12/10 04:19:22;;;;;;;21.17;7.87;;;0.90;97.30;;;;;;4992982;28;20440;-85
2021/12/10 04:21:47;;;;;;;17.13;8.03;;;0.90;97.30;;;;;;4993302;28;20428;-86
2021/12/10 04:24:17;;;;;;;19.73;7.90;;;1.00;97.30;;;;;;4993485;28;20421;-85
2021/12/10 04:26:43;;;;;;;25.43;8.30;;;1.00;97.30;;;;;;4992526;28;20417;-86
2021/12/10 04:29:09;;;;;;;18.30;8.03;;;1.00;97.30;;;;;;4992505;28;20421;-86
2021/12/10 04:31:34;;;;;;;36.23;8.93;;;1.00;97.30;;;;;;4992483;28;21073;-85
2021/12/10 04:34:03;;;;;;;27.07;9.67;;;1.00;97.30;;;;;;4993580;28;20273;-84
2021/12/10 04:36:29;;;;;;;34.87;9.10;;;1.00;97.30;;;;;;4992351;28;20185;-85
2021/12/10 04:38:55;;;;;;;20.43;7.70;;;1.00;97.30;;;;;;4989365;28;20472;-85
2021/12/10 04:41:21;;;;;;;19.87;8.70;;;0.90;97.30;;;;;;4989940;28;20496;-85
2021/12/10 04:43:47;;;;;;;20.27;8.30;;;0.90;97.30;;;;;;4991544;28;20728;-85
2021/12/10 04:46:14;;;;;;;16.87;7.50;;;0.90;97.30;;;;;;4994273;28;20233;-85
2021/12/10 04:49:02;;;;;;;13.37;6.70;;;0.90;97.30;;;;;;4993889;28;20471;-84
2021/12/10 04:51:34;;;;;;;24.47;9.00;;;0.90;97.30;;;;;;4994020;28;20953;-84
2021/12/10 04:54:00;;;;;;;26.73;9.33;;;0.90;97.30;;;;;;4994389;28;20416;-85
2021/12/10 04:56:27;;;;;;;23.70;7.40;;;0.90;97.30;;;;;;4993200;28;20790;-85
2021/12/10 04:58:53;;;;;;;16.37;7.60;;;1.00;97.30;;;;;;4991012;28;20464;-85
2021/12/10 05:01:19;;;;;;;21.90;7.87;;;1.00;97.30;;;;;;4993220;28;20413;-85
2021/12/10 05:03:45;;;;;;;19.73;8.00;;;0.90;97.30;;;;;;4992874;28;20433;-86
2021/12/10 05:06:11;;;;;;;23.40;6.90;;;1.00;97.30;;;;;;4991280;28;20872;-85
2021/12/10 05:08:38;;;;;;;20.23;8.00;;;1.00;97.30;;;;;;4993213;28;20227;-85
2021/12/10 05:11:07;;;;;;;18.30;7.73;;;1.00;97.30;;;;;;4992995;28;20201;-85
2021/12/10 05:13:35;;;;;;;20.83;9.40;;;1.00;97.30;;;;;;4991743;28;20445;-85
2021/12/10 05:16:01;;;;;;;16.57;6.97;;;1.00;97.30;;;;;;4991781;28;20433;-85
2021/12/10 05:18:31;;;;;;;17.00;7.13;;;1.10;97.30;;;;;;4994124;28;20470;-85
2021/12/10 05:20:57;;;;;;;18.57;6.90;;;1.10;97.30;;;;;;4994272;28;20590;-84
2021/12/10 05:23:23;;;;;;;15.87;7.10;;;1.10;97.30;;;;;;4990693;28;20979;-84
2021/12/10 05:25:50;;;;;;;31.10;8.70;;;1.10;97.30;;;;;;5008740;28;20480;-82
2021/12/10 05:28:16;;;;;;;13.50;6.83;;;1.10;97.30;;;;;;4994261;28;20186;-84
2021/12/10 05:30:43;;;;;;;17.57;7.50;;;1.10;97.30;;;;;;4993749;28;20442;-85
2021/12/10 05:33:15;;;;;;;22.07;7.40;;;1.10;97.30;;;;;;4994207;28;20421;-85
2021/12/10 05:35:41;;;;;;;17.67;7.13;;;1.20;97.30;;;;;;4994041;28;20425;-85
2021/12/10 05:38:08;;;;;;;16.50;6.57;;;1.20;97.30;;;;;;4993962;28;20453;-84
2021/12/10 05:40:35;;;;;;;18.27;7.27;;;1.20;97.30;;;;;;4993688;28;20464;-84
2021/12/10 05:43:00;;;;;;;14.63;6.70;;;1.20;97.30;;;;;;4993650;28;20954;-85
2021/12/10 05:45:27;;;;;;;19.30;6.37;;;1.20;97.30;;;;;;4993293;28;20555;-84
2021/12/10 05:47:52;;;;;;;15.77;6.40;;;1.20;97.30;;;;;;4985743;28;20633;-84
2021/12/10 05:50:21;;;;;;;18.77;6.70;;;1.30;97.30;;;;;;4996342;28;20451;-84
2021/12/10 05:52:47;;;;;;;16.50;6.83;;;1.30;97.30;;;;;;5014019;28;20232;-86
2021/12/10 05:55:13;;;;;;;14.80;6.57;;;1.20;97.30;;;;;;4996332;28;20428;-85
2021/12/10 05:57:39;;;;;;;18.47;7.10;;;1.20;97.30;;;;;;4986691;28;20189;-84
2021/12/10 06:00:10;;;;;;;21.83;7.00;;;1.20;97.30;;;;;;4986957;28;20457;-85
2021/12/10 06:02:36;;;;;;;16.67;7.10;;;1.20;97.30;;;;;;4987490;28;20282;-85
2021/12/10 06:05:01;;;;;;;21.90;7.80;;;1.20;97.30;;;;;;4987936;28;20425;-85
2021/12/10 06:07:27;;;;;;;15.83;6.23;;;1.20;97.30;;;;;;4984677;28;20430;-85
2021/12/10 06:09:52;;;;;;;22.23;7.07;;;1.20;97.30;;;;;;4992733;28;20236;-84
2021/12/10 06:12:18;;;;;;;21.93;7.10;;;1.20;97.30;;;;;;4992034;28;20232;-85
2021/12/10 06:14:43;;;;;;;10.23;6.07;;;1.20;97.30;;;;;;4992735;28;20280;-85
2021/12/10 06:17:10;;;;;;;15.77;6.27;;;1.20;97.30;;;;;;4989096;28;20622;-85
2021/12/10 06:19:35;;;;;;;15.10;6.60;;;1.20;97.30;;;;;;4992371;28;20229;-85
2021/12/10 06:22:01;;;;;;;18.03;7.53;;;1.20;97.30;;;;;;4991257;28;20421;-85
2021/12/10 06:24:27;;;;;;;17.80;7.00;;;1.20;97.30;;;;;;4992642;28;20182;-85
2021/12/10 06:26:52;;;;;;;16.63;7.40;;;1.10;97.30;;;;;;4992670;28;20178;-86
2021/12/10 06:29:22;;;;;;;14.00;6.60;;;1.10;97.30;;;;;;4992581;28;20201;-85
2021/12/10 06:31:48;;;;;;;15.53;6.37;;;1.10;97.30;;;;;;4992693;28;20189;-84
2021/12/10 06:34:14;;;;;;;18.23;6.30;;;1.20;97.30;;;;;;4992676;28;20504;-85
2021/12/10 06:36:41;;;;;;;13.60;6.70;;;1.20;97.30;;;;;;4992470;28;20497;-85
2021/12/10 06:39:08;;;;;;;17.10;6.63;;;1.20;97.30;;;;;;4992569;28;20209;-84
2021/12/10 06:41:34;;;;;;;15.50;6.63;;;1.20;97.30;;;;;;4993989;28;20409;-85
2021/12/10 06:44:04;;;;;;;16.37;6.80;;;1.20;97.30;;;;;;4993065;28;20415;-84
2021/12/10 06:46:34;;;;;;;22.57;7.00;;;1.20;97.30;;;;;;4995833;28;20428;-84
2021/12/10 06:48:59;;;;;;;18.90;6.60;;;1.20;97.30;;;;;;5013562;28;21002;-84
2021/12/10 06:51:25;;;;;;;18.10;5.60;;;1.20;97.30;;;;;;4995582;28;20452;-85
2021/12/10 06:53:51;;;;;;;16.50;7.37;;;1.20;97.30;;;;;;4991984;28;20178;-85
2021/12/10 06:56:19;;;;;;;14.37;6.97;;;1.30;97.30;;;;;;4992392;28;20223;-83
2021/12/10 06:58:45;;;;;;;21.40;6.73;;;1.30;97.30;;;;;;4993544;28;20460;-84
2021/12/10 07:01:13;;;;;;;19.70;7.27;;;1.30;97.30;;;;;;4995387;28;20436;-84
2021/12/10 07:03:40;;;;;;;18.07;7.83;;;1.40;97.30;;;;;;4995496;28;20431;-84
2021/12/10 07:06:07;;;;;;;15.50;8.03;;;1.40;97.30;;;;;;4995983;28;20988;-85
2021/12/10 07:08:34;;;;;;;15.17;6.93;;;1.40;97.30;;;;;;4995585;28;20787;-84
2021/12/10 07:11:01;;;;;;;19.00;7.60;;;1.40;97.30;;;;;;4995572;28;20451;-85
2021/12/10 07:13:28;;;;;;;20.97;8.17;;;1.50;97.30;;;;;;4995585;28;20430;-85
2021/12/10 07:15:53;;;;;;;15.53;6.60;;;1.50;97.30;;;;;;5012732;28;20578;-85
2021/12/10 07:18:19;;;;;;;21.63;6.97;;;1.50;97.30;;;;;;5012905;28;21066;-84
2021/12/10 07:20:46;;;;;;;16.73;7.27;;;1.50;97.30;;;;;;5012927;28;20197;-85
2021/12/10 07:23:12;;;;;;;11.20;5.43;;;1.50;97.30;;;;;;4995711;28;20747;-85
2021/12/10 07:25:38;;;;;;;13.93;5.93;;;1.50;97.30;;;;;;4995722;28;20412;-85
2021/12/10 07:28:04;;;;;;;16.90;6.90;;;1.50;97.30;;;;;;4995628;28;20515;-84
2021/12/10 07:30:31;;;;;;;16.67;6.77;;;1.60;97.30;;;;;;5013147;28;20227;-85
2021/12/10 07:32:56;;;;;;;19.93;7.53;;;1.50;97.30;;;;;;4995396;28;20882;-84
2021/12/10 07:35:22;;;;;;;28.20;7.40;;;1.50;97.30;;;;;;4995419;28;20459;-84
2021/12/10 07:37:48;;;;;;;16.33;6.90;;;1.50;97.30;;;;;;4995351;28;20258;-84
2021/12/10 07:40:20;;;;;;;14.27;6.43;;;1.50;97.30;;;;;;5012426;28;20428;-84
2021/12/10 07:42:46;;;;;;;17.80;6.67;;;1.50;97.30;;;;;;4995652;28;20424;-84
2021/12/10 07:45:13;;;;;;;16.63;7.03;;;1.50;97.30;;;;;;4995127;28;20976;-84
2021/12/10 07:47:40;;;;;;;21.47;6.97;;;1.50;97.30;;;;;;4995700;28;20467;-84
2021/12/10 07:50:11;;;;;;;22.33;8.07;;;1.50;97.30;;;;;;5012853;28;20443;-84
2021/12/10 07:52:40;;;;;;;22.53;7.43;;;1.60;97.30;;;;;;4995419;28;20443;-84
2021/12/10 07:55:10;;;;;;;21.77;8.60;;;1.60;97.30;;;;;;5012945;28;20491;-85
2021/12/10 07:57:35;;;;;;;17.57;7.90;;;1.60;97.30;;;;;;4995078;28;20466;-85
2021/12/10 08:00:02;;;;;;;20.80;7.63;;;1.60;97.30;;;;;;4991924;28;20540;-84
2021/12/10 08:02:28;;;;;;;18.53;7.60;;;1.60;97.30;;;;;;4991327;28;20633;-83
2021/12/10 08:04:53;;;;;;;18.07;7.00;;;1.60;97.30;;;;;;4993050;28;20504;-85
2021/12/10 08:07:19;;;;;;;21.83;9.37;;;1.60;97.30;;;;;;4991643;28;20225;-85
2021/12/10 08:09:44;;;;;;;18.80;6.73;;;1.60;97.30;;;;;;4991925;28;20272;-85
2021/12/10 08:12:11;;;;;;;21.37;6.97;;;1.60;97.30;;;;;;4991611;28;20188;-85
2021/12/10 08:14:37;;;;;;;18.83;6.30;;;1.60;97.30;;;;;;4991674;28;20273;-85
2021/12/10 08:17:03;;;;;;;23.53;7.80;;;1.60;97.30;;;;;;4991744;28;20485;-85
2021/12/10 08:19:29;;;;;;;20.80;7.10;;;1.60;97.30;;;;;;4991152;28;20456;-85
2021/12/10 08:21:55;;;;;;;19.87;8.10;;;1.70;97.30;;;;;;4989126;28;20852;-85
2021/12/10 08:24:21;;;;;;;14.90;6.20;;;1.70;97.30;;;;;;4989571;28;20189;-85
2021/12/10 08:26:47;;;;;;;17.13;7.00;;;1.70;97.30;;;;;;4991904;28;20413;-84
2021/12/10 08:29:15;;;;;;;23.10;7.00;;;1.70;97.30;;;;;;4995152;28;20494;-85
2021/12/10 08:31:41;;;;;;;21.53;8.67;;;1.70;97.30;;;;;;4995451;28;20181;-84
2021/12/10 08:34:07;;;;;;;19.17;7.83;;;1.80;97.30;;;;;;4995369;28;20435;-85
2021/12/10 08:36:33;;;;;;;24.30;7.00;;;1.80;97.30;;;;;;4995157;28;20409;-84
2021/12/10 08:38:59;;;;;;;20.93;7.23;;;1.90;97.30;;;;;;4995144;28;20205;-85
2021/12/10 08:41:29;;;;;;;25.00;7.70;;;1.90;97.30;;;;;;4994946;28;20424;-85
2021/12/10 08:43:56;;;;;;;23.53;9.60;;;2.00;97.30;;;;;;4995637;28;20425;-85
2021/12/10 08:46:26;;;;;;;23.13;8.67;;;2.00;97.30;;;;;;4994565;28;20833;-85
2021/12/10 08:48:52;;;;;;;17.07;6.90;;;2.10;97.30;;;;;;4995013;28;20432;-85
2021/12/10 08:51:21;;;;;;;19.87;8.20;;;2.10;97.30;;;;;;4998357;28;20448;-85
2021/12/10 08:53:47;;;;;;;21.97;8.67;;;2.20;97.30;;;;;;4998296;28;20945;-85
2021/12/10 08:56:14;;;;;;;21.90;8.27;;;2.20;97.30;;;;;;4998214;28;20412;-84
2021/12/10 08:58:40;;;;;;;29.97;8.47;;;2.20;97.30;;;;;;4998235;28;20216;-85
2021/12/10 09:01:18;;;;;;;17.57;7.67;;;2.20;97.30;;;;;;4998182;28;20516;-85
2021/12/10 09:03:48;;;;;;;18.07;7.60;;;2.30;97.30;;;;;;4998207;28;20474;-85
2021/12/10 09:06:17;;;;;;;21.23;7.40;;;2.30;97.30;;;;;;5015452;28;21034;-85
2021/12/10 09:08:42;;;;;;;22.40;8.37;;;2.40;97.30;;;;;;5015254;28;20915;-84
2021/12/10 09:11:11;;;;;;;21.33;8.97;;;2.40;97.30;;;;;;5015796;28;20443;-85
2021/12/10 09:13:36;;;;;;;18.13;7.60;;;2.40;97.30;;;;;;4997985;28;20190;-84
2021/12/10 09:16:06;;;;;;;19.07;7.43;;;2.40;97.30;;;;;;4998090;28;20931;-85
2021/12/10 09:18:34;;;;;;;19.60;8.87;;;2.50;97.30;;;;;;4997965;28;20246;-84
2021/12/10 09:21:01;;;;;;;25.10;8.33;;;2.50;97.30;;;;;;5015341;28;20438;-85
2021/12/10 09:23:29;;;;;;;24.40;8.07;;;2.50;97.30;;;;;;4997698;28;20924;-85
2021/12/10 09:25:59;;;;;;;19.60;8.13;;;2.60;97.30;;;;;;4997781;28;20420;-84
2021/12/10 09:28:28;;;;;;;16.23;7.57;;;2.60;97.30;;;;;;4997848;28;20408;-85
2021/12/10 09:30:57;;;;;;;22.63;8.50;;;2.60;97.30;;;;;;4997166;28;20444;-84
2021/12/10 09:33:23;;;;;;;20.60;8.00;;;2.60;97.30;;;;;;4997536;28;20424;-85
2021/12/10 09:35:52;;;;;;;27.70;11.10;;;2.60;97.30;;;;;;4997435;28;20443;-84
2021/12/10 09:38:20;;;;;;;25.57;9.33;;;2.70;97.30;;;;;;4997253;28;20642;-85
2021/12/10 09:40:49;;;;;;;20.23;9.00;;;2.70;97.30;;;;;;4996479;28;20432;-85
2021/12/10 09:43:16;;;;;;;27.70;10.70;;;2.80;97.30;;;;;;4997548;28;20416;-85
2021/12/10 09:45:43;;;;;;;21.77;7.77;;;2.80;97.30;;;;;;4997393;28;20464;-85
2021/12/10 09:48:12;;;;;;;22.43;8.07;;;2.90;97.30;;;;;;5014715;28;20412;-85
2021/12/10 09:50:46;;;;;;;23.67;10.57;;;2.90;97.30;;;;;;4997166;28;20432;-85
2021/12/10 09:53:12;;;;;;;22.63;8.70;;;3.00;97.30;;;;;;4997129;28;20412;-86
2021/12/10 09:55:39;;;;;;;21.23;8.30;;;3.10;97.30;;;;;;4997291;28;20423;-84
2021/12/10 09:58:05;;;;;;;21.57;9.20;;;3.10;97.30;;;;;;4996815;28;20463;-84
2021/12/10 10:00:43;;;;;;;24.10;11.10;;;3.20;97.30;;;;;;5014553;28;20942;-85
2021/12/10 10:03:11;;;;;;;19.17;8.23;;;3.30;97.30;;;;;;4996894;28;20400;-84
2021/12/10 10:05:38;;;;;;;26.53;8.17;;;3.40;97.30;;;;;;4996685;28;20416;-85
2021/12/10 10:08:08;;;;;;;18.33;7.87;;;3.50;97.30;;;;;;4996704;28;20987;-85
2021/12/10 10:10:36;;;;;;;22.87;9.77;;;3.60;97.30;;;;;;4996760;28;20475;-83
2021/12/10 10:13:05;;;;;;;18.53;7.90;;;3.70;97.30;;;;;;4996463;28;20417;-85
2021/12/10 10:15:38;;;;;;;18.73;8.10;;;3.70;97.30;;;;;;4996368;28;20420;-85
2021/12/10 10:18:07;;;;;;;16.47;6.90;;;3.80;97.30;;;;;;5013896;28;20440;-85
2021/12/10 10:20:35;;;;;;;17.70;8.20;;;3.90;97.30;;;;;;5014092;28;20432;-84
2021/12/10 10:23:01;;;;;;;17.27;7.10;;;4.00;97.30;;;;;;4996645;28;20440;-85
2021/12/10 10:25:30;;;;;;;17.00;7.70;;;4.20;97.30;;;;;;4996123;28;20412;-85
2021/12/10 10:27:58;;;;;;;17.17;7.57;;;4.30;97.30;;;;;;5001556;28;20181;-85
2021/12/10 10:30:35;;;;;;;18.27;6.60;;;4.50;97.30;;;;;;4991992;28;20436;-86
2021/12/10 10:33:04;;;;;;;17.50;9.20;;;4.80;97.30;;;;;;4975767;28;20423;-85
2021/12/10 10:35:39;;;;;;;13.33;6.37;;;4.90;97.30;;;;;;4976619;28;20405;-86
2021/12/10 10:38:07;;;;;;;14.70;6.90;;;5.00;97.30;;;;;;4975078;28;20457;-87
2021/12/10 10:40:36;;;;;;;14.20;6.50;;;5.20;97.30;;;;;;4975273;28;20868;-86
2021/12/10 10:43:03;;;;;;;19.23;7.27;;;5.40;97.30;;;;;;4976155;28;20420;-85
2021/12/10 10:45:32;;;;;;;21.20;7.53;;;5.50;97.30;;;;;;4982601;28;20460;-85
2021/12/10 10:48:01;;;;;;;14.43;6.90;;;5.50;97.30;;;;;;4997817;28;20421;-85
2021/12/10 10:50:49;;;;;;;15.43;6.57;;;5.60;97.30;;;;;;4995095;28;20436;-86
2021/12/10 10:53:18;;;;;;;13.10;5.93;;;5.60;97.30;;;;;;4984556;28;20440;-86
2021/12/10 10:56:08;;;;;;;12.70;6.07;;;5.80;97.30;;;;;;4995007;28;20428;-86
2021/12/10 10:58:42;;;;;;;16.07;6.83;;;5.90;97.30;;;;;;4991200;28;20837;-86
2021/12/10 11:01:22;;;;;;;13.27;5.83;;;6.00;97.30;;;;;;4991325;28;20452;-86
2021/12/10 11:03:54;;;;;;;15.80;6.40;;;5.80;97.30;;;;;;4991161;28;20413;-86
2021/12/10 11:06:32;;;;;;;16.53;6.70;;;5.60;97.30;;;;;;4991670;28;20413;-86
2021/12/10 11:09:27;;;;;;;17.60;7.23;;;5.40;97.30;;;;;;4990072;28;20826;-86
2021/12/10 11:11:57;;;;;;;21.20;6.00;;;5.10;97.30;;;;;;4988259;28;20433;-86
2021/12/10 11:14:30;;;;;;;12.17;6.50;;;4.90;97.30;;;;;;4990807;28;20417;-86
2021/12/10 11:17:05;;;;;;;17.70;7.70;;;4.80;97.30;;;;;;4990215;28;20424;-86
2021/12/10 11:19:31;;;;;;;15.80;6.80;;;4.70;97.30;;;;;;5002062;23;20513;-79
2021/12/10 11:21:58;;;;;;;23.20;6.70;;;4.60;97.30;;;;;;5019767;28;20419;-78
2021/12/10 11:24:44;;;;;;;14.13;6.53;;;4.70;97.30;;;;;;5011980;28;20506;-79
2021/12/10 11:27:32;;;;;;;17.33;7.00;;;4.60;97.30;;;;;;5000351;28;20495;-78
2021/12/10 11:30:01;;;;;;;14.93;6.73;;;4.60;97.30;;;;;;5010760;28;20416;-77
2021/12/10 11:32:33;;;;;;;19.17;7.13;;;4.60;97.30;;;;;;4995227;28;20423;-78
2021/12/10 11:35:19;;;;;;;19.43;7.03;;;4.70;97.30;;;;;;4994793;28;20507;-77
2021/12/10 11:37:54;;;;;;;13.40;5.93;;;4.70;97.30;;;;;;4994926;28;20455;-80
2021/12/10 11:40:46;;;;;;;13.67;6.43;;;4.70;97.30;;;;;;4994791;28;20416;-78
2021/12/10 11:43:20;;;;;;;18.10;5.90;;;4.70;97.30;;;;;;4994528;28;20419;-78
2021/12/10 11:49:05;;;;;;;17.57;7.27;;;4.80;97.30;;;;;;4995312;28;20506;-77
2021/12/10 11:51:33;;;;;;;14.90;5.97;;;4.80;97.30;;;;;;4995037;28;20775;-77
2021/12/10 11:54:16;;;;;;;12.40;7.10;;;4.90;97.30;;;;;;4994842;28;20506;-77
2021/12/10 11:56:46;;;;;;;18.13;6.07;;;5.10;97.30;;;;;;5012320;28;20802;-78
2021/12/10 11:59:27;;;;;;;18.57;6.47;;;5.50;97.30;;;;;;5016269;28;20511;-79
2021/12/10 12:02:26;;;;;;;16.10;6.13;;;5.90;97.30;;;;;;5014313;28;20916;-78
2021/12/10 12:04:53;;;;;;;11.27;5.83;;;6.10;97.30;;;;;;5003108;28;21238;-78
2021/12/10 12:07:25;;;;;;;11.73;6.33;;;6.10;97.30;;;;;;5017973;28;20442;-79
2021/12/10 12:10:04;;;;;;;17.23;6.50;;;6.10;97.30;;;;;;5017908;28;20403;-78
2021/12/10 12:12:39;;;;;;;14.40;5.83;;;6.40;97.30;;;;;;5035928;28;20395;-78
2021/12/10 12:15:23;;;;;;;11.37;5.13;;;6.40;97.30;;;;;;5017943;28;20900;-77
2021/12/10 12:18:04;;;;;;;17.30;7.47;;;6.30;97.30;;;;;;5017901;28;20450;-78
2021/12/10 12:20:52;;;;;;;12.20;5.50;;;6.10;97.30;;;;;;5017624;28;20467;-78
2021/12/10 12:26:22;;;;;;;12.30;6.10;;;5.80;97.30;;;;;;5035591;28;20472;-77
2021/12/10 12:29:04;;;;;;;12.80;5.70;;;5.70;97.30;;;;;;5014616;28;20422;-79
2021/12/10 12:31:36;;;;;;;14.17;6.60;;;5.60;97.30;;;;;;5034995;28;20830;-78
2021/12/10 12:34:18;;;;;;;13.80;6.90;;;5.60;97.30;;;;;;5028000;28;20419;-77
2021/12/10 12:36:50;;;;;;;14.50;6.30;;;5.60;97.30;;;;;;5000409;28;20849;-78
2021/12/10 12:39:46;;;;;;;14.13;6.10;;;5.70;97.30;;;;;;4997326;28;20467;-78
2021/12/10 12:42:23;;;;;;;23.47;6.93;;;5.80;97.30;;;;;;4997997;28;20947;-78
2021/12/10 12:44:59;;;;;;;11.80;5.90;;;6.20;97.30;;;;;;4997944;28;20885;-79
2021/12/10 12:47:34;;;;;;;13.80;6.43;;;6.90;97.30;;;;;;5015110;28;20435;-78
2021/12/10 12:50:22;;;;;;;7.97;5.87;;;7.30;97.30;;;;;;4997630;28;20936;-78
2021/12/10 12:52:57;;;;;;;7.40;4.27;;;7.30;97.30;;;;;;4997075;28;20423;-78
2021/12/10 12:55:35;;;;;;;8.13;5.13;;;7.10;97.30;;;;;;4997644;28;20407;-78
2021/12/10 12:58:11;;;;;;;6.20;3.77;;;7.10;97.30;;;;;;4997303;28;20468;-78
2021/12/10 13:00:59;;;;;;;4.67;2.70;;;6.90;97.30;;;;;;4997452;28;20418;-77
2021/12/10 13:03:30;;;;;;;7.80;3.63;;;6.50;97.30;;;;;;4997325;28;20447;-78
2021/12/10 13:06:23;;;;;;;5.47;3.27;;;6.30;97.30;;;;;;5014737;28;21171;-78
2021/12/10 13:09:12;;;;;;;4.80;3.20;;;6.00;97.30;;;;;;5015030;28;20412;-78
2021/12/10 13:12:02;;;;;;;6.60;3.67;;;5.90;97.30;;;;;;5014950;28;20397;-77